createdAt,value
2018-03-16T00:00:37.966Z,82.07
2018-03-16T00:01:37.974Z,82.54
2018-03-16T00:02:37.979Z,83.78
2018-03-16T00:03:37.979Z,85.39
2018-03-16T00:04:37.974Z,85.96
2018-03-16T00:05:37.983Z,86.82
2018-03-16T00:06:37.985Z,87.95
2018-03-16T00:07:37.996Z,87.48
2018-03-16T00:08:37.994Z,88.34
2018-03-16T00:09:37.995Z,89.86
2018-03-16T00:10:37.994Z,89.19
2018-03-16T00:11:37.999Z,88.90
2018-03-16T00:12:37.999Z,89.00
2018-03-16T00:13:38.001Z,89.57
2018-03-16T00:14:38.018Z,90.28
2018-03-16T00:15:38.018Z,90.76
2018-03-16T00:16:38.018Z,91.42
2018-03-16T00:17:38.017Z,91.61
2018-03-16T00:18:38.010Z,90.95
2018-03-16T00:19:38.014Z,91.14
2018-03-16T00:20:38.018Z,91.42
2018-03-16T00:21:38.020Z,92.09
2018-03-16T00:22:38.026Z,92.09
2018-03-16T00:23:38.023Z,92.09
2018-03-16T00:24:38.025Z,91.80
2018-03-16T00:25:38.595Z,91.80
2018-03-16T00:26:38.022Z,92.18
2018-03-16T00:27:38.033Z,92.75
2018-03-16T00:28:38.033Z,92.18
2018-03-16T00:29:38.034Z,92.09
2018-03-16T00:30:38.039Z,92.94
2018-03-16T00:31:38.050Z,92.66
2018-03-16T00:32:38.049Z,92.94
2018-03-16T00:33:38.054Z,92.94
2018-03-16T00:34:38.042Z,93.13
2018-03-16T00:35:38.059Z,93.23
2018-03-16T00:36:38.054Z,93.70
2018-03-16T00:37:38.057Z,93.41
2018-03-16T00:38:38.064Z,93.89
2018-03-16T00:39:38.067Z,93.80
2018-03-16T00:40:38.068Z,93.80
2018-03-16T00:41:38.096Z,93.51
2018-03-16T00:42:38.065Z,93.99
2018-03-16T00:43:38.063Z,94.18
2018-03-16T00:44:38.072Z,93.99
2018-03-16T00:45:38.076Z,94.56
2018-03-16T00:46:38.067Z,94.74
2018-03-16T00:47:38.078Z,94.37
2018-03-16T00:48:38.074Z,93.60
2018-03-16T00:49:38.082Z,93.51
2018-03-16T00:50:38.076Z,93.70
2018-03-16T00:51:38.082Z,93.32
2018-03-16T00:52:38.082Z,92.94
2018-03-16T00:53:38.092Z,92.28
2018-03-16T00:54:38.086Z,92.28
2018-03-16T00:55:38.090Z,92.18
2018-03-16T00:56:38.091Z,92.75
2018-03-16T00:57:38.101Z,92.37
2018-03-16T00:58:38.102Z,91.61
2018-03-16T00:59:38.128Z,90.95
2018-03-16T01:00:38.099Z,91.14
2018-03-16T01:01:38.117Z,91.24
2018-03-16T01:02:38.122Z,90.85
2018-03-16T01:03:38.138Z,91.33
2018-03-16T01:04:38.107Z,90.85
2018-03-16T01:05:38.106Z,90.76
2018-03-16T01:06:38.110Z,91.14
2018-03-16T01:07:38.111Z,91.04
2018-03-16T01:08:38.115Z,91.33
2018-03-16T01:09:38.112Z,91.04
2018-03-16T01:10:38.114Z,91.24
2018-03-16T01:11:38.120Z,90.95
2018-03-16T01:12:38.217Z,91.61
2018-03-16T01:13:38.116Z,90.38
2018-03-16T01:14:38.126Z,91.61
2018-03-16T01:15:38.130Z,91.89
2018-03-16T01:16:38.137Z,91.61
2018-03-16T01:17:38.143Z,91.61
2018-03-16T01:18:38.139Z,91.42
2018-03-16T01:19:38.145Z,91.33
2018-03-16T01:20:38.157Z,91.61
2018-03-16T01:21:38.152Z,91.24
2018-03-16T01:22:38.137Z,91.80
2018-03-16T01:23:38.172Z,91.71
2018-03-16T01:24:38.151Z,91.24
2018-03-16T01:25:38.155Z,91.52
2018-03-16T01:26:38.153Z,91.42
2018-03-16T01:27:38.146Z,91.24
2018-03-16T01:28:38.151Z,90.76
2018-03-16T01:29:38.161Z,91.33
2018-03-16T01:30:38.161Z,90.95
2018-03-16T01:31:38.166Z,90.38
2018-03-16T01:32:38.160Z,90.85
2018-03-16T01:33:38.161Z,90.85
2018-03-16T01:34:38.167Z,90.85
2018-03-16T01:35:38.167Z,90.66
2018-03-16T01:36:38.176Z,91.14
2018-03-16T01:37:38.176Z,91.52
2018-03-16T01:38:38.185Z,91.52
2018-03-16T01:39:38.183Z,90.57
2018-03-16T01:40:38.183Z,90.57
2018-03-16T01:41:38.177Z,90.47
2018-03-16T01:42:38.193Z,90.38
2018-03-16T01:43:38.200Z,90.85
2018-03-16T01:44:38.196Z,91.04
2018-03-16T01:45:38.205Z,90.76
2018-03-16T01:46:38.199Z,91.14
2018-03-16T01:47:38.198Z,90.47
2018-03-16T01:48:38.202Z,90.47
2018-03-16T01:49:38.229Z,90.57
2018-03-16T01:50:38.195Z,90.38
2018-03-16T01:51:38.199Z,91.04
2018-03-16T01:52:38.208Z,90.85
2018-03-16T01:53:38.201Z,91.14
2018-03-16T01:54:38.201Z,90.66
2018-03-16T01:55:38.217Z,90.38
2018-03-16T01:56:38.212Z,90.66
2018-03-16T01:57:38.212Z,90.57
2018-03-16T01:58:39.099Z,90.85
2018-03-16T01:59:38.220Z,90.66
2018-03-16T02:00:38.226Z,90.66
2018-03-16T02:01:38.218Z,90.47
2018-03-16T02:02:38.241Z,90.47
2018-03-16T02:03:38.240Z,89.53
2018-03-16T02:04:38.257Z,90.09
2018-03-16T02:05:38.236Z,90.57
2018-03-16T02:06:38.243Z,89.81
2018-03-16T02:07:38.234Z,89.81
2018-03-16T02:08:38.237Z,90.09
2018-03-16T02:09:38.253Z,90.00
2018-03-16T02:10:38.250Z,89.43
2018-03-16T02:11:38.245Z,90.00
2018-03-16T02:12:38.251Z,89.53
2018-03-16T02:13:38.247Z,89.43
2018-03-16T02:14:38.252Z,89.90
2018-03-16T02:15:38.257Z,89.43
2018-03-16T02:16:38.261Z,90.00
2018-03-16T02:17:38.255Z,90.57
2018-03-16T02:18:38.255Z,90.00
2018-03-16T02:19:38.267Z,91.04
2018-03-16T02:20:38.269Z,90.76
2018-03-16T02:21:38.265Z,91.61
2018-03-16T02:22:38.271Z,91.33
2018-03-16T02:23:38.300Z,91.33
2018-03-16T02:24:38.282Z,91.24
2018-03-16T02:25:38.281Z,91.80
2018-03-16T02:26:38.286Z,91.42
2018-03-16T02:27:38.303Z,91.42
2018-03-16T02:28:38.291Z,91.42
2018-03-16T02:29:38.285Z,91.33
2018-03-16T02:30:40.465Z,91.80
2018-03-16T02:31:39.963Z,91.71
2018-03-16T02:32:38.294Z,90.95
2018-03-16T02:33:38.299Z,91.61
2018-03-16T02:34:38.298Z,91.80
2018-03-16T02:35:38.310Z,91.71
2018-03-16T02:36:38.291Z,90.71
2018-03-16T02:37:38.312Z,91.47
2018-03-16T02:38:38.305Z,91.80
2018-03-16T02:39:38.313Z,91.80
2018-03-16T02:40:38.308Z,91.99
2018-03-16T02:41:38.308Z,91.61
2018-03-16T02:42:38.311Z,91.61
2018-03-16T02:43:38.319Z,91.99
2018-03-16T02:44:38.324Z,92.56
2018-03-16T02:45:38.325Z,92.18
2018-03-16T02:46:38.327Z,92.56
2018-03-16T02:47:38.334Z,92.71
2018-03-16T02:48:38.332Z,92.66
2018-03-16T02:49:38.328Z,92.18
2018-03-16T02:50:38.392Z,92.52
2018-03-16T02:51:38.324Z,92.66
2018-03-16T02:52:38.338Z,92.90
2018-03-16T02:53:38.335Z,92.66
2018-03-16T02:54:38.338Z,92.80
2018-03-16T02:55:38.343Z,93.04
2018-03-16T02:56:38.361Z,92.85
2018-03-16T02:57:38.357Z,92.28
2018-03-16T02:58:38.344Z,92.80
2018-03-16T02:59:38.359Z,92.85
2018-03-16T03:00:38.348Z,92.14
2018-03-16T03:01:38.348Z,92.28
2018-03-16T03:02:38.352Z,91.99
2018-03-16T03:03:38.357Z,92.28
2018-03-16T03:04:38.364Z,92.33
2018-03-16T03:05:38.398Z,92.85
2018-03-16T03:06:38.363Z,92.56
2018-03-16T03:07:38.374Z,92.94
2018-03-16T03:08:38.370Z,92.85
2018-03-16T03:09:38.376Z,92.94
2018-03-16T03:10:38.365Z,92.85
2018-03-16T03:11:38.379Z,92.23
2018-03-16T03:12:38.382Z,92.18
2018-03-16T03:13:38.377Z,92.42
2018-03-16T03:14:38.372Z,92.90
2018-03-16T03:15:38.380Z,92.99
2018-03-16T03:16:38.385Z,92.85
2018-03-16T03:17:38.379Z,92.80
2018-03-16T03:18:38.382Z,92.28
2018-03-16T03:19:38.394Z,92.23
2018-03-16T03:20:38.393Z,92.90
2018-03-16T03:21:38.395Z,92.90
2018-03-16T03:22:38.397Z,92.90
2018-03-16T03:23:38.397Z,93.37
2018-03-16T03:24:38.406Z,92.71
2018-03-16T03:25:38.399Z,92.99
2018-03-16T03:26:38.417Z,92.90
2018-03-16T03:27:38.415Z,93.46
2018-03-16T03:28:38.469Z,93.75
2018-03-16T03:29:38.406Z,93.27
2018-03-16T03:30:38.405Z,93.75
2018-03-16T03:31:38.415Z,93.27
2018-03-16T03:32:38.414Z,93.94
2018-03-16T03:33:38.415Z,93.75
2018-03-16T03:34:38.424Z,93.84
2018-03-16T03:35:38.422Z,93.23
2018-03-16T03:36:38.419Z,92.90
2018-03-16T03:37:38.426Z,93.80
2018-03-16T03:38:38.422Z,93.37
2018-03-16T03:39:38.430Z,93.37
2018-03-16T03:40:38.434Z,93.94
2018-03-16T03:41:38.434Z,93.56
2018-03-16T03:42:38.438Z,93.75
2018-03-16T03:43:38.441Z,94.13
2018-03-16T03:44:38.453Z,94.03
2018-03-16T03:45:38.450Z,93.84
2018-03-16T03:46:38.452Z,94.32
2018-03-16T03:47:38.463Z,94.42
2018-03-16T03:48:38.453Z,94.42
2018-03-16T03:49:38.453Z,94.60
2018-03-16T03:50:38.453Z,94.42
2018-03-16T03:51:38.463Z,94.89
2018-03-16T03:52:38.465Z,94.60
2018-03-16T03:53:38.462Z,95.07
2018-03-16T03:54:38.462Z,95.07
2018-03-16T03:55:38.465Z,95.36
2018-03-16T03:56:38.468Z,94.98
2018-03-16T03:57:38.467Z,95.74
2018-03-16T03:58:38.498Z,95.74
2018-03-16T03:59:38.485Z,95.74
2018-03-16T04:00:38.476Z,95.84
2018-03-16T04:01:38.480Z,95.93
2018-03-16T04:02:38.481Z,96.41
2018-03-16T04:03:38.485Z,96.69
2018-03-16T04:04:38.492Z,96.78
2018-03-16T04:05:38.484Z,96.50
2018-03-16T04:06:38.504Z,96.50
2018-03-16T04:07:38.496Z,96.59
2018-03-16T04:08:38.509Z,96.22
2018-03-16T04:09:38.515Z,97.07
2018-03-16T04:10:38.497Z,97.45
2018-03-16T04:11:38.490Z,98.02
2018-03-16T04:12:38.501Z,98.02
2018-03-16T04:13:38.490Z,97.45
2018-03-16T04:14:38.505Z,97.26
2018-03-16T04:15:38.499Z,97.55
2018-03-16T04:16:38.509Z,97.64
2018-03-16T04:17:38.499Z,97.92
2018-03-16T04:18:38.501Z,97.92
2018-03-16T04:19:39.132Z,97.64
2018-03-16T04:20:38.510Z,97.64
2018-03-16T04:21:38.514Z,97.92
2018-03-16T04:22:38.512Z,97.74
2018-03-16T04:23:38.536Z,97.74
2018-03-16T04:24:38.518Z,97.92
2018-03-16T04:25:38.521Z,97.92
2018-03-16T04:26:38.535Z,97.92
2018-03-16T04:27:38.534Z,97.74
2018-03-16T04:28:38.536Z,98.21
2018-03-16T04:29:38.544Z,98.49
2018-03-16T04:30:38.525Z,98.11
2018-03-16T04:31:38.564Z,97.92
2018-03-16T04:32:38.555Z,98.11
2018-03-16T04:33:38.537Z,98.30
2018-03-16T04:34:38.539Z,97.74
2018-03-16T04:35:38.536Z,97.74
2018-03-16T04:36:38.538Z,97.83
2018-03-16T04:37:38.542Z,98.40
2018-03-16T04:38:38.537Z,98.30
2018-03-16T04:39:38.549Z,98.78
2018-03-16T04:40:38.558Z,98.40
2018-03-16T04:41:38.554Z,98.59
2018-03-16T04:42:38.557Z,98.30
2018-03-16T04:43:38.551Z,98.68
2018-03-16T04:44:38.556Z,99.26
2018-03-16T04:45:38.560Z,99.44
2018-03-16T04:46:38.563Z,99.26
2018-03-16T04:47:38.567Z,98.97
2018-03-16T04:48:38.565Z,99.63
2018-03-16T04:49:38.592Z,99.26
2018-03-16T04:50:38.586Z,99.16
2018-03-16T04:51:38.579Z,99.63
2018-03-16T04:52:38.578Z,99.35
2018-03-16T04:53:38.565Z,99.35
2018-03-16T04:54:38.576Z,99.63
2018-03-16T04:55:38.575Z,99.99
2018-03-16T04:56:38.579Z,99.73
2018-03-16T04:57:38.573Z,99.99
2018-03-16T04:58:38.584Z,99.73
2018-03-16T04:59:38.587Z,98.97
2018-03-16T05:00:38.580Z,98.97
2018-03-16T05:01:38.598Z,98.59
2018-03-16T05:02:38.585Z,98.97
2018-03-16T05:03:38.590Z,99.16
2018-03-16T05:04:38.584Z,98.92
2018-03-16T05:05:38.592Z,99.26
2018-03-16T05:06:38.594Z,99.26
2018-03-16T05:07:38.604Z,99.54
2018-03-16T05:08:38.599Z,99.11
2018-03-16T05:09:38.609Z,99.11
2018-03-16T05:10:38.629Z,98.54
2018-03-16T05:11:38.612Z,98.82
2018-03-16T05:12:38.634Z,99.44
2018-03-16T05:13:38.611Z,99.20
2018-03-16T05:14:38.602Z,99.16
2018-03-16T05:15:38.657Z,98.82
2018-03-16T05:16:39.148Z,98.73
2018-03-16T05:17:38.610Z,99.06
2018-03-16T05:18:38.610Z,99.01
2018-03-16T05:19:38.612Z,99.01
2018-03-16T05:20:38.615Z,99.11
2018-03-16T05:21:38.618Z,98.63
2018-03-16T05:22:38.614Z,99.16
2018-03-16T05:23:38.623Z,99.16
2018-03-16T05:24:38.620Z,99.44
2018-03-16T05:25:38.622Z,99.44
2018-03-16T05:26:38.620Z,98.68
2018-03-16T05:27:38.624Z,99.11
2018-03-16T05:28:38.631Z,99.39
2018-03-16T05:29:38.631Z,99.01
2018-03-16T05:30:38.646Z,99.82
2018-03-16T05:31:38.640Z,99.11
2018-03-16T05:32:38.641Z,99.01
2018-03-16T05:33:38.656Z,99.68
2018-03-16T05:34:38.652Z,99.99
2018-03-16T05:35:38.645Z,99.99
2018-03-16T05:36:38.643Z,99.87
2018-03-16T05:37:38.650Z,99.99
2018-03-16T05:38:38.649Z,99.99
2018-03-16T05:39:38.700Z,99.87
2018-03-16T05:40:38.709Z,99.99
2018-03-16T05:41:38.697Z,99.99
2018-03-16T05:42:38.658Z,99.99
2018-03-16T05:43:38.657Z,99.99
2018-03-16T05:44:38.738Z,99.99
2018-03-16T05:45:38.671Z,99.99
2018-03-16T05:46:38.761Z,99.99
2018-03-16T05:47:38.762Z,99.99
2018-03-16T05:48:38.759Z,99.99
2018-03-16T05:49:38.674Z,99.99
2018-03-16T05:50:38.733Z,99.99
2018-03-16T05:51:38.676Z,99.99
2018-03-16T05:52:38.689Z,99.99
2018-03-16T05:53:38.669Z,99.99
2018-03-16T05:54:38.688Z,99.99
2018-03-16T05:55:38.684Z,99.99
2018-03-16T05:56:38.699Z,99.99
2018-03-16T05:57:38.856Z,99.99
2018-03-16T05:58:38.689Z,99.99
2018-03-16T05:59:38.696Z,99.99
2018-03-16T06:00:38.751Z,99.99
2018-03-16T06:01:38.676Z,99.99
2018-03-16T06:02:38.680Z,99.99
2018-03-16T06:03:38.690Z,99.99
2018-03-16T06:04:38.723Z,99.99
2018-03-16T06:05:38.687Z,99.99
2018-03-16T06:06:38.697Z,99.99
2018-03-16T06:07:39.049Z,99.99
2018-03-16T06:08:38.708Z,99.99
2018-03-16T06:09:38.708Z,99.99
2018-03-16T06:10:38.698Z,99.99
2018-03-16T06:11:38.717Z,99.99
2018-03-16T06:12:38.707Z,99.99
2018-03-16T06:13:38.716Z,99.99
2018-03-16T06:14:38.716Z,99.99
2018-03-16T06:15:38.715Z,99.99
2018-03-16T06:16:38.713Z,99.99
2018-03-16T06:17:38.722Z,99.82
2018-03-16T06:18:38.725Z,99.99
2018-03-16T06:19:38.757Z,99.99
2018-03-16T06:20:38.716Z,99.99
2018-03-16T06:21:38.735Z,99.99
2018-03-16T06:22:38.733Z,99.99
2018-03-16T06:23:38.717Z,99.99
2018-03-16T06:24:38.717Z,99.99
2018-03-16T06:25:38.721Z,99.99
2018-03-16T06:26:38.724Z,99.99
2018-03-16T06:27:38.730Z,99.99
2018-03-16T06:28:38.725Z,99.99
2018-03-16T06:29:38.732Z,99.99
2018-03-16T06:30:38.735Z,99.99
2018-03-16T06:31:38.741Z,99.99
2018-03-16T06:32:38.764Z,99.99
2018-03-16T06:33:38.769Z,99.99
2018-03-16T06:34:38.746Z,99.99
2018-03-16T06:35:38.738Z,99.99
2018-03-16T06:36:38.756Z,99.99
2018-03-16T06:37:38.756Z,99.99
2018-03-16T06:38:38.747Z,99.99
2018-03-16T06:39:38.767Z,99.99
2018-03-16T06:40:38.780Z,99.99
2018-03-16T06:41:38.754Z,99.99
2018-03-16T06:42:38.752Z,99.99
2018-03-16T06:43:38.745Z,99.99
2018-03-16T06:44:38.840Z,99.99
2018-03-16T06:45:38.765Z,99.99
2018-03-16T06:46:38.755Z,99.99
2018-03-16T06:47:38.760Z,99.99
2018-03-16T06:48:38.760Z,99.99
2018-03-16T06:49:38.766Z,99.99
2018-03-16T06:50:38.761Z,99.99
2018-03-16T06:51:38.771Z,99.99
2018-03-16T06:52:38.769Z,99.99
2018-03-16T06:53:38.786Z,99.99
2018-03-16T06:54:38.816Z,99.99
2018-03-16T06:55:38.793Z,99.99
2018-03-16T06:56:38.804Z,99.99
2018-03-16T06:57:38.781Z,99.99
2018-03-16T06:58:38.790Z,99.99
2018-03-16T06:59:38.805Z,99.49
2018-03-16T07:00:38.780Z,99.49
2018-03-16T07:01:38.778Z,99.58
2018-03-16T07:02:38.779Z,99.77
2018-03-16T07:03:38.801Z,99.77
2018-03-16T07:04:38.787Z,99.20
2018-03-16T07:05:38.790Z,99.20
2018-03-16T07:06:38.788Z,99.01
2018-03-16T07:07:38.807Z,99.39
2018-03-16T07:08:38.800Z,99.68
2018-03-16T07:09:38.811Z,99.39
2018-03-16T07:10:38.804Z,99.39
2018-03-16T07:11:38.807Z,99.39
2018-03-16T07:12:38.835Z,99.20
2018-03-16T07:13:38.825Z,99.58
2018-03-16T07:14:38.843Z,99.58
2018-03-16T07:15:38.844Z,99.96
2018-03-16T07:16:38.828Z,99.99
2018-03-16T07:17:38.901Z,99.96
2018-03-16T07:18:38.827Z,99.58
2018-03-16T07:19:38.831Z,99.77
2018-03-16T07:20:38.842Z,98.82
2018-03-16T07:21:38.815Z,99.20
2018-03-16T07:22:38.819Z,98.44
2018-03-16T07:23:38.891Z,98.92
2018-03-16T07:24:38.835Z,98.73
2018-03-16T07:25:38.828Z,99.20
2018-03-16T07:26:38.822Z,99.20
2018-03-16T07:27:38.825Z,98.82
2018-03-16T07:28:38.826Z,98.82
2018-03-16T07:29:38.874Z,99.01
2018-03-16T07:30:38.850Z,98.16
2018-03-16T07:31:38.864Z,98.07
2018-03-16T07:32:38.853Z,98.44
2018-03-16T07:33:38.839Z,98.25
2018-03-16T07:34:38.837Z,98.35
2018-03-16T07:35:38.873Z,98.73
2018-03-16T07:36:38.855Z,98.63
2018-03-16T07:37:38.843Z,98.44
2018-03-16T07:38:38.915Z,97.88
2018-03-16T07:39:38.862Z,97.88
2018-03-16T07:40:38.857Z,97.40
2018-03-16T07:41:38.875Z,97.40
2018-03-16T07:42:38.849Z,97.50
2018-03-16T07:43:38.856Z,97.59
2018-03-16T07:44:38.855Z,97.97
2018-03-16T07:45:38.855Z,97.88
2018-03-16T07:46:38.864Z,98.25
2018-03-16T07:47:38.890Z,98.25
2018-03-16T07:48:38.880Z,98.16
2018-03-16T07:49:38.880Z,98.07
2018-03-16T07:50:38.875Z,98.16
2018-03-16T07:51:38.875Z,98.16
2018-03-16T07:52:38.872Z,98.35
2018-03-16T07:53:38.896Z,99.01
2018-03-16T07:54:38.891Z,98.44
2018-03-16T07:55:38.880Z,99.01
2018-03-16T07:56:38.888Z,98.82
2018-03-16T07:57:38.888Z,98.97
2018-03-16T07:58:38.879Z,99.11
2018-03-16T07:59:38.881Z,99.11
2018-03-16T08:00:38.890Z,99.20
2018-03-16T08:01:38.885Z,98.82
2018-03-16T08:02:38.894Z,98.54
2018-03-16T08:03:38.922Z,98.63
2018-03-16T08:04:38.892Z,98.63
2018-03-16T08:05:38.893Z,98.16
2018-03-16T08:06:39.059Z,97.59
2018-03-16T08:07:39.029Z,97.40
2018-03-16T08:08:38.910Z,97.50
2018-03-16T08:09:38.896Z,97.69
2018-03-16T08:10:38.906Z,98.16
2018-03-16T08:11:38.906Z,97.69
2018-03-16T08:12:38.911Z,97.31
2018-03-16T08:13:38.921Z,97.40
2018-03-16T08:14:38.917Z,97.12
2018-03-16T08:15:38.919Z,97.12
2018-03-16T08:16:38.923Z,97.21
2018-03-16T08:17:38.916Z,97.40
2018-03-16T08:18:38.925Z,97.12
2018-03-16T08:19:38.914Z,97.02
2018-03-16T08:20:38.919Z,97.31
2018-03-16T08:21:38.932Z,96.64
2018-03-16T08:22:38.933Z,97.21
2018-03-16T08:23:38.925Z,96.45
2018-03-16T08:24:38.936Z,96.73
2018-03-16T08:25:38.942Z,96.73
2018-03-16T08:26:38.944Z,97.12
2018-03-16T08:27:38.940Z,97.69
2018-03-16T08:28:38.942Z,97.31
2018-03-16T08:29:38.949Z,97.31
2018-03-16T08:30:38.948Z,97.02
2018-03-16T08:31:38.959Z,97.02
2018-03-16T08:32:38.968Z,97.78
2018-03-16T08:33:38.945Z,97.59
2018-03-16T08:34:38.953Z,97.12
2018-03-16T08:35:38.948Z,97.21
2018-03-16T08:36:38.960Z,97.40
2018-03-16T08:37:38.952Z,97.78
2018-03-16T08:38:39.022Z,97.31
2018-03-16T08:39:38.978Z,96.92
2018-03-16T08:40:38.964Z,96.64
2018-03-16T08:41:38.958Z,96.83
2018-03-16T08:42:38.967Z,97.02
2018-03-16T08:43:38.981Z,97.02
2018-03-16T08:44:38.985Z,97.12
2018-03-16T08:45:39.009Z,97.31
2018-03-16T08:46:38.978Z,96.83
2018-03-16T08:47:39.058Z,96.64
2018-03-16T08:48:39.072Z,96.17
2018-03-16T08:49:38.988Z,95.98
2018-03-16T08:50:38.983Z,96.26
2018-03-16T08:51:38.990Z,96.64
2018-03-16T08:52:38.995Z,96.26
2018-03-16T08:53:38.979Z,95.60
2018-03-16T08:54:39.003Z,95.88
2018-03-16T08:55:38.999Z,95.79
2018-03-16T08:56:38.999Z,96.36
2018-03-16T08:57:39.000Z,96.08
2018-03-16T08:58:38.998Z,95.88
2018-03-16T08:59:39.007Z,95.88
2018-03-16T09:00:39.703Z,96.45
2018-03-16T09:01:39.005Z,95.88
2018-03-16T09:02:39.003Z,96.31
2018-03-16T09:03:39.007Z,96.36
2018-03-16T09:04:39.027Z,96.03
2018-03-16T09:05:39.004Z,96.31
2018-03-16T09:06:39.014Z,96.50
2018-03-16T09:07:39.017Z,96.22
2018-03-16T09:08:39.150Z,96.59
2018-03-16T09:09:39.097Z,96.69
2018-03-16T09:10:39.035Z,96.26
2018-03-16T09:11:39.052Z,96.41
2018-03-16T09:12:39.084Z,96.78
2018-03-16T09:13:39.049Z,96.36
2018-03-16T09:14:39.060Z,97.45
2018-03-16T09:15:39.070Z,97.26
2018-03-16T09:16:39.035Z,96.50
2018-03-16T09:17:39.039Z,96.64
2018-03-16T09:18:39.166Z,96.59
2018-03-16T09:19:39.050Z,96.88
2018-03-16T09:20:39.046Z,96.26
2018-03-16T09:21:39.037Z,96.88
2018-03-16T09:22:39.047Z,96.83
2018-03-16T09:23:39.132Z,96.26
2018-03-16T09:24:39.059Z,95.98
2018-03-16T09:25:39.062Z,96.26
2018-03-16T09:26:39.057Z,96.55
2018-03-16T09:27:39.063Z,96.83
2018-03-16T09:28:39.070Z,96.64
2018-03-16T09:29:39.069Z,97.40
2018-03-16T09:30:39.063Z,97.31
2018-03-16T09:31:39.091Z,97.78
2018-03-16T09:32:39.083Z,97.40
2018-03-16T09:33:39.071Z,96.64
2018-03-16T09:34:39.066Z,96.55
2018-03-16T09:35:39.088Z,96.64
2018-03-16T09:36:39.100Z,96.36
2018-03-16T09:37:39.078Z,96.36
2018-03-16T09:38:39.085Z,96.92
2018-03-16T09:39:39.096Z,97.12
2018-03-16T09:40:39.080Z,96.92
2018-03-16T09:41:39.088Z,96.26
2018-03-16T09:42:39.084Z,96.17
2018-03-16T09:43:39.099Z,95.88
2018-03-16T09:44:39.089Z,96.64
2018-03-16T09:45:39.094Z,97.02
2018-03-16T09:46:39.100Z,97.12
2018-03-16T09:47:39.095Z,97.59
2018-03-16T09:48:39.099Z,97.59
2018-03-16T09:49:39.094Z,97.40
2018-03-16T09:50:39.144Z,97.31
2018-03-16T09:51:39.115Z,96.92
2018-03-16T09:52:39.137Z,96.83
2018-03-16T09:53:39.120Z,96.55
2018-03-16T09:54:39.126Z,96.83
2018-03-16T09:55:39.148Z,96.92
2018-03-16T09:56:39.131Z,97.45
2018-03-16T09:57:39.161Z,97.40
2018-03-16T09:58:39.120Z,97.12
2018-03-16T09:59:39.117Z,97.12
2018-03-16T10:00:39.130Z,96.88
2018-03-16T10:01:39.161Z,97.12
2018-03-16T10:02:39.124Z,97.12
2018-03-16T10:03:39.126Z,97.40
2018-03-16T10:04:39.129Z,96.12
2018-03-16T10:05:39.128Z,96.69
2018-03-16T10:06:39.135Z,97.07
2018-03-16T10:07:39.134Z,97.64
2018-03-16T10:08:39.135Z,97.02
2018-03-16T10:09:39.138Z,97.31
2018-03-16T10:10:39.139Z,97.21
2018-03-16T10:11:39.149Z,96.31
2018-03-16T10:12:39.162Z,96.88
2018-03-16T10:13:39.147Z,96.31
2018-03-16T10:14:39.153Z,97.07
2018-03-16T10:15:39.174Z,96.41
2018-03-16T10:16:39.182Z,96.78
2018-03-16T10:17:39.160Z,97.12
2018-03-16T10:18:39.172Z,96.59
2018-03-16T10:19:39.199Z,96.69
2018-03-16T10:20:39.160Z,96.69
2018-03-16T10:21:39.152Z,96.55
2018-03-16T10:22:39.167Z,96.36
2018-03-16T10:23:39.161Z,96.08
2018-03-16T10:24:39.167Z,95.98
2018-03-16T10:25:39.162Z,95.79
2018-03-16T10:26:39.267Z,96.03
2018-03-16T10:27:39.171Z,96.31
2018-03-16T10:28:39.171Z,96.78
2018-03-16T10:29:39.176Z,96.69
2018-03-16T10:30:39.183Z,96.73
2018-03-16T10:31:39.200Z,96.92
2018-03-16T10:32:39.188Z,97.40
2018-03-16T10:33:39.195Z,96.45
2018-03-16T10:34:39.189Z,96.17
2018-03-16T10:35:39.207Z,95.88
2018-03-16T10:36:39.212Z,95.88
2018-03-16T10:37:39.201Z,95.98
2018-03-16T10:38:39.192Z,95.41
2018-03-16T10:39:39.200Z,95.69
2018-03-16T10:40:39.237Z,95.22
2018-03-16T10:41:39.192Z,95.22
2018-03-16T10:42:39.197Z,95.12
2018-03-16T10:43:39.204Z,95.50
2018-03-16T10:44:39.204Z,95.50
2018-03-16T10:45:39.197Z,95.69
2018-03-16T10:46:39.203Z,95.98
2018-03-16T10:47:39.215Z,96.36
2018-03-16T10:48:39.209Z,95.60
2018-03-16T10:49:39.214Z,95.50
2018-03-16T10:50:39.230Z,95.50
2018-03-16T10:51:39.225Z,95.22
2018-03-16T10:52:39.258Z,94.84
2018-03-16T10:53:39.227Z,95.50
2018-03-16T10:54:39.223Z,95.60
2018-03-16T10:55:39.229Z,95.22
2018-03-16T10:56:39.250Z,94.84
2018-03-16T10:57:39.221Z,94.37
2018-03-16T10:58:39.227Z,93.89
2018-03-16T10:59:39.252Z,94.56
2018-03-16T11:00:39.237Z,94.46
2018-03-16T11:01:39.248Z,94.37
2018-03-16T11:02:39.265Z,94.84
2018-03-16T11:03:40.214Z,94.65
2018-03-16T11:04:39.242Z,94.18
2018-03-16T11:05:39.235Z,94.18
2018-03-16T11:06:39.270Z,93.80
2018-03-16T11:07:39.247Z,93.51
2018-03-16T11:08:39.271Z,93.99
2018-03-16T11:09:39.253Z,94.27
2018-03-16T11:10:39.278Z,94.37
2018-03-16T11:11:39.260Z,94.46
2018-03-16T11:12:39.255Z,94.37
2018-03-16T11:13:39.270Z,94.18
2018-03-16T11:14:39.272Z,94.27
2018-03-16T11:15:39.278Z,93.51
2018-03-16T11:16:39.268Z,93.61
2018-03-16T11:17:39.269Z,94.65
2018-03-16T11:18:39.275Z,93.99
2018-03-16T11:19:39.277Z,94.37
2018-03-16T11:20:39.286Z,94.37
2018-03-16T11:21:39.284Z,95.88
2018-03-16T11:22:39.290Z,94.93
2018-03-16T11:23:40.240Z,94.56
2018-03-16T11:24:39.331Z,93.89
2018-03-16T11:25:39.305Z,93.80
2018-03-16T11:26:39.307Z,94.08
2018-03-16T11:27:39.299Z,94.18
2018-03-16T11:28:39.295Z,94.56
2018-03-16T11:29:39.291Z,94.18
2018-03-16T11:30:39.306Z,93.51
2018-03-16T11:31:39.306Z,93.04
2018-03-16T11:32:39.303Z,92.57
2018-03-16T11:33:39.301Z,92.47
2018-03-16T11:34:39.305Z,92.47
2018-03-16T11:35:39.334Z,92.94
2018-03-16T11:36:39.323Z,93.27
2018-03-16T11:37:39.312Z,93.89
2018-03-16T11:38:39.312Z,93.56
2018-03-16T11:39:39.320Z,93.65
2018-03-16T11:40:39.376Z,93.75
2018-03-16T11:41:39.415Z,93.37
2018-03-16T11:42:39.368Z,94.18
2018-03-16T11:43:39.344Z,94.65
2018-03-16T11:44:39.340Z,94.84
2018-03-16T11:45:39.340Z,94.65
2018-03-16T11:46:39.338Z,93.89
2018-03-16T11:47:39.355Z,93.51
2018-03-16T11:48:39.347Z,93.70
2018-03-16T11:49:39.467Z,93.61
2018-03-16T11:50:39.503Z,93.51
2018-03-16T11:51:39.346Z,92.85
2018-03-16T11:52:39.342Z,92.66
2018-03-16T11:53:39.496Z,93.32
2018-03-16T11:54:39.351Z,93.04
2018-03-16T11:55:39.350Z,93.51
2018-03-16T11:56:39.360Z,93.80
2018-03-16T11:57:39.564Z,93.80
2018-03-16T11:58:39.356Z,93.70
2018-03-16T11:59:39.497Z,93.51
2018-03-16T12:00:39.363Z,93.61
2018-03-16T12:01:39.370Z,93.70
2018-03-16T12:02:39.375Z,93.23
2018-03-16T12:03:39.403Z,92.66
2018-03-16T12:04:39.377Z,92.18
2018-03-16T12:05:39.606Z,92.18
2018-03-16T12:06:39.375Z,92.85
2018-03-16T12:07:39.382Z,93.04
2018-03-16T12:08:39.383Z,93.32
2018-03-16T12:09:39.381Z,93.13
2018-03-16T12:10:39.392Z,93.23
2018-03-16T12:11:39.387Z,93.61
2018-03-16T12:12:39.389Z,93.13
2018-03-16T12:13:39.398Z,93.23
2018-03-16T12:14:39.386Z,93.13
2018-03-16T12:15:39.396Z,93.41
2018-03-16T12:16:39.424Z,93.89
2018-03-16T12:17:39.410Z,92.57
2018-03-16T12:18:39.415Z,92.47
2018-03-16T12:19:39.405Z,92.66
2018-03-16T12:20:39.446Z,92.66
2018-03-16T12:21:39.426Z,92.85
2018-03-16T12:22:39.413Z,92.57
2018-03-16T12:23:39.407Z,92.66
2018-03-16T12:24:39.420Z,93.61
2018-03-16T12:25:39.415Z,93.04
2018-03-16T12:26:39.420Z,93.23
2018-03-16T12:27:39.414Z,93.23
2018-03-16T12:28:49.696Z,93.13
2018-03-16T12:29:39.426Z,93.04
2018-03-16T12:30:39.424Z,93.13
2018-03-16T12:31:39.423Z,93.41
2018-03-16T12:32:39.423Z,93.89
2018-03-16T12:33:39.437Z,93.41
2018-03-16T12:34:39.435Z,93.56
2018-03-16T12:35:39.463Z,93.51
2018-03-16T12:36:39.445Z,93.99
2018-03-16T12:37:39.439Z,93.89
2018-03-16T12:38:39.435Z,93.70
2018-03-16T12:39:39.450Z,93.13
2018-03-16T12:40:39.448Z,93.27
2018-03-16T12:41:39.449Z,93.27
2018-03-16T12:42:39.444Z,92.80
2018-03-16T12:43:39.458Z,93.08
2018-03-16T12:44:39.457Z,93.75
2018-03-16T12:45:39.452Z,93.46
2018-03-16T12:46:39.456Z,92.99
2018-03-16T12:47:39.462Z,93.27
2018-03-16T12:48:39.458Z,93.65
2018-03-16T12:49:39.471Z,93.04
2018-03-16T12:50:39.466Z,92.80
2018-03-16T12:51:42.267Z,92.14
2018-03-16T12:52:39.466Z,92.57